< < Back
Terminal Aerodrome Forecast


Current Version              Previous Versions:   1  2  3  4  5  6  7  8  9  

Terminal Aerodrome Forecast

504
FTAK31 PAJN 301700
TAFAHN
TAF
PAHN 301740Z 3018/3118 31008KT P6SM VCSH OVC060
     FM302100 31010KT P6SM BKN040 BKN080
     FM310300 31008KT P6SM BKN100
     FM310900 31006KT P6SM VCSH BKN050 OVC100
     FM311500 VRB04KT P6SM VCSH SCT025 OVC050
      AMD LTD TO CLD VIS AND WIND=



Latest METAR

645
SAUS70 KWBC 310300 RRA
MTRAHN
METAR KAHN 310251Z AUTO 25005KT 10SM CLR 14/04 A3011 RMK AO2 SLP194
T01390044 51017


USA.gov is the U.S. government's official web portal to all federal, state and local government web resources and services.